x

Nantucket Sound (44020) Wave Buoy

12:50am - Thu 5th Mar 2015 All times are EST. -5 hours from GMT.

  • Sig Wave height 1.0ft
  • Swell Direction
  • Peak Period 10s
  • Average Period 4s
  • Wind
    9mph
  • Sea Temp 31°f
  • Air Temp 34°f
  • Sea Pressure 1011.8mb
  • Nantucket Sound
  • Nantucket Sound

More Historic Weather Station data

Upgrade to MSW Pro to gain access to the past 30 days of data for over 8000 Wavebouys and Weather Stations around the globe.

Join Pro

Comparision Forecast

View Surf forecast
   
Thu 03/05 12:50am 1ft 10s 4s 9
mph
1011.8mb 31f 34f
Wed 03/04 11:50pm 1.3ft 11s 4s 9 11 mph 1011.8mb 31f 34f
10:50pm 1.3ft 10s 4s 11
mph
1012.1mb 31f 34f
9:50pm 1.3ft 10s 4s 11
mph
1012mb 31f 34f
8:50pm 1.3ft 4s 4s 11
mph
1010.7mb 31f 34f
7:50pm 1.3ft 4s 4s 13 16 mph 1011.6mb 31f 34f
6:50pm 1.3ft 3s 3s 13 16 mph 1011.8mb 31f 34f
5:50pm 1.3ft 3s 3s 13 16 mph 1011.4mb 32f 34f
4:50pm 1.3ft 11s 3s 16 18 mph 1010.6mb 32f 34f
3:50pm 1ft 10s 3s 13 16 mph 1009.4mb 32f 34f
2:50pm 1.3ft 3s 3s 13
mph
1009.6mb 31f 33f
1:50pm 1.3ft 3s 3s 16 18 mph 1009.5mb 31f 34f
12:50pm 1.3ft 3s 3s 13 16 mph 1009.3mb 31f 34f
11:50am 1.3ft 3s 4s 16 18 mph 1010mb 31f 34f
10:50am 1.3ft 8s 4s 16 18 mph 1010.2mb 30f 33f
9:50am 1.3ft 3s 4s 13 16 mph 1009.6mb 30f 33f
8:50am 1.3ft 3s 3s 9
mph
1009.2mb 30f 33f
7:50am 1.6ft 3s 3s 9
mph
1007.6mb 31f 33f
6:50am 2ft 3s 3s 18 20 mph 1007.1mb 31f 34f
5:50am 2.5ft 4s 3s 20 22 mph 1006.9mb 31f 35f
4:50am 2.5ft 3s 3s 20 25 mph 1006.5mb 31f 36f
3:50am 2.5ft 3s 3s 25 31 mph 1005.7mb 32f 39f
2:50am 2.5ft 4s 3s 20 22 mph 1006.9mb 31f 38f
1:50am 3ft 4s 4s 27 31 mph 1007.5mb 31f 37f
12:50am 3ft 4s 4s 25 27 mph 1009.9mb 31f 37f
Tue 03/03 11:50pm 2.5ft 4s 3s 25 29 mph 1011.4mb 30f 35f
10:50pm 2.5ft 4s 4s 20 25 mph 1014.5mb 30f 33f
9:50pm 2.5ft 4s 3s 25 27 mph 1016.3mb 30f 32f
8:50pm 1.6ft 3s 3s 20 25 mph 1019.1mb 31f 30f
7:50pm 1.3ft 3s 3s 20 22 mph 1021.4mb 31f 28f
6:50pm 1.3ft 3s 3s 18 20 mph 1023.1mb 31f 29f
5:50pm 1ft 3s 3s 16 20 mph 1024.1mb 32f 29f
4:50pm 0.7ft  -  3s 13 16 mph 1024.9mb 32f 28f
3:50pm 0.7ft  -  5s 13
mph
1025.9mb 32f 27f
2:50pm 0.7ft  -  4s 7 9 mph 1027.1mb 32f 27f
1:50pm 0.7ft  -  3s 7 9 mph 1028.1mb 32f 27f
12:50pm 0.7ft  -  3s 4 7 mph 1029.1mb 31f 27f
11:50am 1ft 3s 3s  -  4 mph 1029.8mb 31f 27f
10:50am 1ft 3s 3s 9 11 mph 1029.8mb 30f 26f
9:50am 1.3ft 3s 3s 11 13 mph 1029.9mb 30f 26f
8:50am 1.3ft 2s 3s 18 20 mph 1029.9mb 30f 25f
7:50am 1.3ft 3s 3s 13 18 mph 1029.5mb 31f 25f
6:50am 1.6ft 3s 3s 16 20 mph 1029.1mb 30f 25f
5:50am 1.6ft 3s 3s 16 20 mph 1028.4mb 31f 26f
4:50am 2ft 3s 3s 20 22 mph 1027.6mb 31f 26f
3:50am 2ft 3s 3s 22 25 mph 1026.6mb 32f 27f
2:50am 2.5ft 4s 4s 20 22 mph 1025.7mb 32f 28f
1:50am 2.5ft 4s 4s 20 25 mph 1025.5mb 31f 28f
12:50am 2.5ft 4s 4s 22 27 mph 1024.3mb 31f 29f
Mon 03/02 11:50pm 2ft 4s 4s 22 27 mph 1023.5mb 31f 30f
10:50pm 2ft 4s 4s 20 25 mph 1022.9mb 30f 30f
9:50pm 2.5ft 4s 3s 20 27 mph 1021.9mb 30f 31f
8:50pm 2.5ft 3s 3s 22 27 mph 1021.3mb 30f 31f
7:50pm 2.5ft 3s 3s 20 27 mph 1020.4mb 31f 32f
6:50pm 2.5ft 4s 3s 20 25 mph 1019.3mb 31f 32f
5:50pm 2.5ft 4s 3s 18 22 mph 1017.7mb 32f 33f
4:50pm 2.5ft 4s 3s 20 25 mph 1016.5mb 32f 34f
3:50pm 2.5ft 4s 4s 18 20 mph 1015.8mb 32f 35f
2:50pm 2.5ft 4s 4s 22 29 mph 1014.8mb 32f 35f
1:50pm 2.5ft 4s 4s 18 22 mph 1014.3mb 32f 34f
12:50pm 2ft 4s 4s 16 20 mph 1013.9mb 31f 33f
11:50am 1.6ft 4s 4s 18 20 mph 1014mb 31f 32f
10:50am 1.3ft 3s 3s 18 22 mph 1013.8mb 30f 31f
9:50am 1.3ft 3s 3s 16 18 mph 1014mb 30f 31f
8:50am 1ft 3s 3s 18 20 mph 1014.4mb 30f 30f
7:50am 1ft 3s 3s 13 16 mph 1014mb 30f 30f
6:50am 0.7ft  -  2s 16 18 mph 1014.2mb 30f 31f
5:50am 0.3ft  -  3s 16 18 mph 1014.6mb 31f 31f
4:50am 0.3ft  -  3s 11 13 mph 1014.9mb 31f 31f
3:50am 0.3ft  -  4s 11
mph
1015.4mb 32f 32f
2:50am 0.7ft  -  5s 11 13 mph 1016.2mb 32f 33f
1:50am 0.3ft  -  4s 7
mph
1017.4mb 32f 34f
12:50am 0.7ft  -  3s 4
mph
1018.7mb 32f 34f
Sun 03/01 11:50pm 0.7ft  -  3s 4 7 mph 1019.6mb 31f 33f
10:50pm 0.7ft  -  3s 2 4 mph 1022.2mb 31f 33f
9:50pm 0.7ft  -  4s 9 11 mph 1023.7mb 30f 32f
8:50pm 0.7ft  -  5s 7 9 mph 1025.1mb 30f 31f
7:50pm 0.3ft  -  4s 7 9 mph 1026.8mb 30f 30f
6:50pm 0.3ft  -  3s 9 11 mph 1028.5mb 31f 29f
5:50pm 0.3ft  -  3s 9 11 mph 1029.6mb 31f 29f
4:50pm 0.3ft  -  4s 11 13 mph 1031.1mb 32f 29f
3:50pm 0.3ft  -  4s 11
mph
1032.5mb 33f 29f
2:50pm 0.3ft  -  5s 7 9 mph 1033.9mb 33f 29f
1:50pm 0.3ft  -  6s 9
mph
1034.4mb 33f 30f
12:50pm 0.3ft  -  5s 9 11 mph 1035.4mb 32f 29f
11:50am 0.3ft  -  5s 7
mph
1036.2mb 32f 29f
10:50am 0.3ft  -  5s 9 11 mph 1037.8mb 32f 28f
9:50am 0.3ft  -  5s 7
mph
1038.7mb 31f 26f
8:50am 0.7ft  -  6s 7
mph
1039.2mb 30f 26f
7:50am 0.7ft  -  6s 4 7 mph 1039.5mb 30f 26f